MEL weather

Melbourne International Airport
Melbourne, Victoria, Australia

Public forecast

Using degrees Celsius for public forecast. Weather courtesy of forecast.io.

METAR (pilot weather report)

Retrieved 2017/05/25 12:00 UTC (9 minutes ago):

YMML 251200Z 36014KT 9999 FEW045 13/10 Q1019 FM1400 30008KT 9999 -SHRA SCT010 BKN020 TEMPO 1400/1500 4000 SHRA BKN008

TAF (pilot weather forecast)

Retrieved 2017/05/25 06:37 UTC (6 hours ago):

TAF YMML 250513Z 2506/2612 33012KT 9999 BKN040 FM250800 32012KT 9999 -SHRA SCT020 BKN030 FM251400 30008KT 9999 -SHRA SCT010 BKN020 BECMG 2600/2602 36007KT 9999 SCT030 INTER 2509/2514 5000 SHRA SCT015 TEMPO 2514/2517 4000 SHRA BKN008 TEMPO 2517/2524 BKN008